Lethbridge Airport, Alberta

9:50 PM MST on December 17, 2014 (GMT -0700)
Lethbridge Airport | Change Station
CLOSE
Current Station
Airport
Location: Lethbridge Airport,
Elevation: 3048 ft
Nearby Weather Stations

Elev 3048 ft 49.63 °N, 112.79 °W | Updated 50 minutes ago

Mostly Cloudy
Mostly Cloudy
28 °F
Feels Like 22 °F
N
6
Wind Variable Wind from SW

Today
High -- | Low -- °F
--% Chance of Precip.
Yesterday
High -- | Low -- °F
Precip. -- in
8:23 AM 4:31 PM
Waning Crescent, 17% visible
Pressure 29.97 in
Visibility 15.0 miles
Clouds Mostly Cloudy 24000 ft
Windchill 22 °F
Dew Point 23 °F
Humidity 80%
Rainfall 0.00 in
Snow Depth Not available.
UV 0 out of 12
Pollen Not available.
Air Quality Not available.
Flu Activity Not available.
METAR CYQL 180400Z 23005KT 15SM BKN240 M02/M05 A2983 RMK CI5 SLP147

More Conditions Fewer Conditions

Pressure 29.97 in
Visibility 15.0 miles
Clouds Mostly Cloudy 24000 ft
Windchill 22 °F
Dew Point 23 °F
Humidity 80%
Rainfall 0.00 in
Snow Depth Not available.
UV 0 out of 12
Pollen Not available.
Air Quality Not available.
Flu Activity Not available.
METAR CYQL 180400Z 23005KT 15SM BKN240 M02/M05 A2983 RMK CI5 SLP147

More Conditions Fewer Conditions

10-Day Weather Forecast

Almanac

Astronomy

Dec. 17, 2014 Rise Set
Actual Time
Civil Twilight
Nautical Twilight
Astronomical Twilight
Moon
Length of Visible Light
Length of Day
Tomorrow will be .
, % of the Moon is Illuminated

Today's Extremes

Country Highs Country Lows

Community

WunderPhotos

Upload Photos

1,778,883 photos uploaded!

WunderBlogs® & News

Nearby

Air Quality

  Air Quality AQ Index Pollutant
Not available.

Snow Depth

Station Depth Elevation

Earthquake Activity

City Distance Mag. Time & Date
Minimum magnitude displayed is 2.5.

Coastal Water Temperatures

Place Temperature

Nearby Weather Stations